createdAt,value
2023-09-14T02:46:49.278Z,2.75
2023-09-14T02:51:42.610Z,2.67
2023-09-14T02:54:09.347Z,2.90
2023-09-14T02:59:03.083Z,3.13
2023-09-14T03:01:31.228Z,3.05
2023-09-14T03:03:58.530Z,2.78
2023-09-14T03:06:25.420Z,3.30
2023-09-14T03:11:52.526Z,2.38
2023-09-14T03:16:45.626Z,3.10
2023-09-14T03:19:12.485Z,2.92
2023-09-14T03:21:39.159Z,3.03
2023-09-14T03:24:05.964Z,3.20
2023-09-14T03:28:58.976Z,2.90
2023-09-14T03:31:26.891Z,4.28
2023-09-14T03:33:53.997Z,3.63
2023-09-14T03:36:21.319Z,3.00
2023-09-14T03:38:48.179Z,2.30
2023-09-14T03:41:15.315Z,2.20
2023-09-14T03:46:10.404Z,2.37
2023-09-14T03:48:37.405Z,2.85
2023-09-14T03:51:05.022Z,3.65
2023-09-14T03:53:34.796Z,3.38
2023-09-14T03:56:01.665Z,3.28
2023-09-14T03:58:28.356Z,4.32
2023-09-14T04:00:56.440Z,3.17
2023-09-14T04:03:23.409Z,3.80
2023-09-14T04:05:50.140Z,4.10
2023-09-14T04:08:16.960Z,3.28
2023-09-14T04:13:34.262Z,3.70
2023-09-14T04:16:02.859Z,3.88
2023-09-14T04:18:30.306Z,3.75
2023-09-14T04:20:56.882Z,3.97
2023-09-14T04:23:23.512Z,4.18
2023-09-14T04:25:50.481Z,4.07
2023-09-14T04:28:18.940Z,3.63
2023-09-14T04:30:50.832Z,3.97
2023-09-14T04:33:18.391Z,3.47
2023-09-14T04:35:45.470Z,3.35
2023-09-14T04:38:12.222Z,3.67
2023-09-14T04:43:06.764Z,3.45
2023-09-14T04:45:33.777Z,3.72
2023-09-14T04:48:01.344Z,3.53
2023-09-14T04:50:28.733Z,3.22
2023-09-14T04:53:01.672Z,4.07
2023-09-14T04:55:28.211Z,3.72
2023-09-14T04:57:54.842Z,3.42
2023-09-14T05:02:48.115Z,3.70
2023-09-14T05:05:14.726Z,3.00
2023-09-14T05:07:44.165Z,3.63
2023-09-14T05:10:11.704Z,4.18
2023-09-14T05:12:38.579Z,4.03
2023-09-14T05:15:05.646Z,3.83
2023-09-14T05:17:32.523Z,4.50
2023-09-14T05:19:59.220Z,4.00
2023-09-14T05:22:26.982Z,3.88
2023-09-14T05:24:54.471Z,3.25
2023-09-14T05:27:21.231Z,3.53
2023-09-14T05:29:48.104Z,3.55
2023-09-14T05:32:15.392Z,3.40
2023-09-14T05:34:42.456Z,3.75
2023-09-14T05:37:09.652Z,3.60
2023-09-14T05:39:36.437Z,3.75
2023-09-14T05:44:36.564Z,4.05
2023-09-14T05:47:03.990Z,3.88
2023-09-14T05:49:30.983Z,4.22
2023-09-14T05:51:58.758Z,3.95
2023-09-14T05:54:25.565Z,3.45
2023-09-14T05:59:31.289Z,3.15
2023-09-14T06:01:59.726Z,3.53
2023-09-14T06:04:26.507Z,3.33
2023-09-14T06:07:10.882Z,3.78
2023-09-14T06:09:38.392Z,3.38
2023-09-14T06:12:05.624Z,3.22
2023-09-14T06:14:34.209Z,3.45
2023-09-14T06:17:02.473Z,3.60
2023-09-14T06:19:29.652Z,3.15
2023-09-14T06:21:56.430Z,3.35
2023-09-14T06:26:52.659Z,3.10
2023-09-14T06:29:19.643Z,3.33
2023-09-14T06:31:46.607Z,3.67
2023-09-14T06:34:13.679Z,4.85
2023-09-14T06:36:40.654Z,3.97
2023-09-14T06:39:10.063Z,4.50
2023-09-14T06:41:46.362Z,3.95
2023-09-14T06:44:15.462Z,4.05
2023-09-14T06:46:45.005Z,3.95
2023-09-14T06:49:11.938Z,4.35
2023-09-14T06:51:38.631Z,4.13
2023-09-14T06:54:06.098Z,4.30
2023-09-14T06:56:37.700Z,4.25
2023-09-14T06:59:04.544Z,4.00
2023-09-14T07:01:31.465Z,3.40
2023-09-14T07:03:58.437Z,3.45
2023-09-14T07:06:25.220Z,3.55
2023-09-14T07:08:52.132Z,3.50
2023-09-14T07:11:19.611Z,3.58
2023-09-14T07:13:46.370Z,3.92
2023-09-14T07:16:13.183Z,3.63
2023-09-14T07:21:06.183Z,3.55
2023-09-14T07:23:32.638Z,3.30
2023-09-14T07:25:59.127Z,3.55
2023-09-14T07:28:25.683Z,3.22
2023-09-14T07:30:53.212Z,3.60
2023-09-14T07:33:20.288Z,2.83
2023-09-14T07:35:46.935Z,3.58
2023-09-14T07:38:14.042Z,3.20
2023-09-14T07:40:41.964Z,3.80
2023-09-14T07:43:08.695Z,2.88
2023-09-14T07:48:04.033Z,2.97
2023-09-14T07:50:30.565Z,2.53
2023-09-14T07:52:57.209Z,2.45
2023-09-14T07:55:24.442Z,2.67
2023-09-14T07:57:50.995Z,2.95
2023-09-14T08:00:17.517Z,2.65
2023-09-14T08:02:44.304Z,3.15
2023-09-14T08:07:37.580Z,3.85
2023-09-14T08:10:04.728Z,4.20
2023-09-14T08:12:31.240Z,6.45
2023-09-14T08:14:57.830Z,5.60
2023-09-14T08:17:24.377Z,5.25
2023-09-14T08:19:50.954Z,4.63
2023-09-14T08:22:24.005Z,4.55
2023-09-14T08:24:53.956Z,4.18
2023-09-14T08:27:20.563Z,3.42
2023-09-14T08:29:47.319Z,2.15
2023-09-14T08:32:14.281Z,2.45
2023-09-14T08:34:40.966Z,2.45
2023-09-14T08:37:12.171Z,1.98
2023-09-14T08:39:39.489Z,1.83
2023-09-14T08:42:06.074Z,1.67
2023-09-14T08:44:35.841Z,2.13
2023-09-14T08:47:33.227Z,1.50
2023-09-14T08:50:01.622Z,1.50
2023-09-14T08:52:28.741Z,2.30
2023-09-14T08:54:57.677Z,1.40
2023-09-14T08:57:28.655Z,1.70
2023-09-14T09:00:00.604Z,1.33
2023-09-14T09:02:28.875Z,1.70
2023-09-14T09:04:55.697Z,1.60
2023-09-14T09:09:50.567Z,1.45
2023-09-14T09:12:18.379Z,1.27
2023-09-14T09:14:45.502Z,1.25
2023-09-14T09:17:17.641Z,1.60
2023-09-14T09:19:53.861Z,1.70
2023-09-14T09:22:20.981Z,1.75
2023-09-14T09:24:47.985Z,1.50
2023-09-14T09:27:28.294Z,1.60
2023-09-14T09:30:01.819Z,1.33
2023-09-14T09:32:28.507Z,1.73
2023-09-14T09:34:55.056Z,1.92
2023-09-14T09:37:24.357Z,1.50
2023-09-14T09:39:52.432Z,1.73
2023-09-14T09:42:20.861Z,1.42
2023-09-14T09:44:48.315Z,1.27
2023-09-14T09:47:14.872Z,1.52
2023-09-14T09:49:41.407Z,1.45
2023-09-14T09:52:13.991Z,2.45
2023-09-14T09:54:41.249Z,1.38
2023-09-14T09:57:08.856Z,1.67
2023-09-14T09:59:35.400Z,1.60
2023-09-14T10:02:01.936Z,1.35
2023-09-14T10:07:00.348Z,1.45
2023-09-14T10:09:34.008Z,1.40
2023-09-14T10:12:04.584Z,1.10
2023-09-14T10:14:33.525Z,1.33
2023-09-14T10:17:04.662Z,1.33
2023-09-14T10:19:32.299Z,1.35
2023-09-14T10:22:01.466Z,1.60
2023-09-14T10:24:28.395Z,1.23
2023-09-14T10:29:24.369Z,1.70
2023-09-14T10:31:54.225Z,1.55
2023-09-14T10:34:21.458Z,1.55
2023-09-14T10:36:51.585Z,1.38
2023-09-14T10:39:23.559Z,1.63
2023-09-14T10:41:50.326Z,1.95
2023-09-14T10:44:16.930Z,1.88
2023-09-14T10:46:45.669Z,1.58
2023-09-14T10:49:18.448Z,1.00
2023-09-14T10:51:46.382Z,1.77
2023-09-14T10:54:14.228Z,1.35
2023-09-14T10:56:40.881Z,1.40
2023-09-14T10:59:11.271Z,1.30
2023-09-14T11:04:20.679Z,1.35
2023-09-14T11:06:54.004Z,1.48
2023-09-14T11:09:22.651Z,1.52
2023-09-14T11:11:54.844Z,1.58
2023-09-14T11:14:26.654Z,1.13
2023-09-14T11:16:57.439Z,1.20
2023-09-14T11:19:42.968Z,2.15
2023-09-14T11:22:18.350Z,1.23
2023-09-14T11:24:46.517Z,1.73
2023-09-14T11:27:21.299Z,1.90
2023-09-14T11:29:51.375Z,1.17
2023-09-14T11:32:25.424Z,1.60
2023-09-14T11:34:57.846Z,1.20
2023-09-14T11:37:29.188Z,1.33
2023-09-14T11:39:59.564Z,1.00
2023-09-14T11:42:29.579Z,1.08
2023-09-14T11:45:07.227Z,1.60
2023-09-14T11:47:41.045Z,1.33
2023-09-14T11:50:11.388Z,1.33
2023-09-14T11:52:38.197Z,1.10
2023-09-14T11:55:05.962Z,1.42
2023-09-14T11:57:32.910Z,1.45
2023-09-14T12:00:00.532Z,1.55
2023-09-14T12:02:27.504Z,1.50
2023-09-14T12:07:24.591Z,1.60
2023-09-14T12:09:51.257Z,1.50
2023-09-14T12:12:31.846Z,1.20
2023-09-14T12:14:59.197Z,1.25
2023-09-14T12:17:27.620Z,1.30
2023-09-14T12:19:59.047Z,1.40
2023-09-14T12:22:28.517Z,1.67
2023-09-14T12:24:56.403Z,1.65
2023-09-14T12:27:23.755Z,1.95
2023-09-14T12:29:51.292Z,1.52
2023-09-14T12:32:18.626Z,1.52
2023-09-14T12:34:46.044Z,1.60
2023-09-14T12:37:17.659Z,1.40
2023-09-14T12:40:02.784Z,1.77
2023-09-14T12:42:29.498Z,2.08
2023-09-14T12:47:22.758Z,1.08
2023-09-14T12:52:16.623Z,1.52
2023-09-14T12:54:46.105Z,1.50
2023-09-14T12:57:16.963Z,1.15
2023-09-14T13:00:13.053Z,1.60
2023-09-14T13:02:52.925Z,1.67
2023-09-14T13:05:28.268Z,2.00
2023-09-14T13:07:59.297Z,1.00
2023-09-14T13:10:29.204Z,1.73
2023-09-14T13:13:07.675Z,1.40
2023-09-14T13:15:36.014Z,1.55
2023-09-14T13:18:09.977Z,1.40
2023-09-14T13:20:38.896Z,1.60
2023-09-14T13:23:07.050Z,1.42
2023-09-14T13:25:34.019Z,1.27
2023-09-14T13:28:08.089Z,1.50
2023-09-14T13:30:36.245Z,1.58
2023-09-14T13:33:08.015Z,1.73
2023-09-14T13:35:37.724Z,1.23
2023-09-14T13:38:14.555Z,1.23
2023-09-14T13:40:41.245Z,1.45
2023-09-14T13:45:53.951Z,2.30
2023-09-14T13:52:18.820Z,1.38
2023-09-14T13:54:47.968Z,1.75
2023-09-14T13:57:20.833Z,1.50
2023-09-14T13:59:50.700Z,1.13
2023-09-14T14:02:19.737Z,1.48
2023-09-14T14:04:55.240Z,1.40
2023-09-14T14:07:24.377Z,1.60
2023-09-14T14:09:56.194Z,1.50
2023-09-14T14:12:32.278Z,1.70
2023-09-14T14:15:07.084Z,1.67
2023-09-14T14:17:34.561Z,1.95
2023-09-14T14:20:01.349Z,1.30
2023-09-14T14:22:30.496Z,1.58
2023-09-14T14:25:05.743Z,1.80
2023-09-14T14:27:33.825Z,1.30
2023-09-14T14:30:49.553Z,1.90
2023-09-14T14:33:16.194Z,1.60
2023-09-14T14:38:11.421Z,1.23
2023-09-14T14:43:52.278Z,1.33
2023-09-14T14:46:19.669Z,1.58
2023-09-14T14:48:47.294Z,1.20
2023-09-14T14:51:14.101Z,1.83
2023-09-14T14:56:09.543Z,1.50
2023-09-14T15:01:11.490Z,1.27
2023-09-14T15:03:42.526Z,1.17
2023-09-14T15:06:12.256Z,1.30
2023-09-14T15:08:39.959Z,1.70
2023-09-14T15:11:09.124Z,1.48
2023-09-14T15:13:42.680Z,1.50
2023-09-14T15:16:09.618Z,1.20
2023-09-14T15:18:38.812Z,1.10
2023-09-14T15:21:06.552Z,1.52
2023-09-14T15:23:33.947Z,1.38
2023-09-14T15:26:33.564Z,1.45
2023-09-14T15:29:00.975Z,1.40
2023-09-14T15:31:27.760Z,1.48
2023-09-14T15:34:10.372Z,1.30
2023-09-14T15:36:36.993Z,1.55
2023-09-14T15:39:04.573Z,1.58
2023-09-14T15:41:31.137Z,1.30
2023-09-14T15:43:57.621Z,1.52
2023-09-14T15:46:25.543Z,1.35
2023-09-14T15:53:25.372Z,1.30
2023-09-14T15:55:54.799Z,1.08
2023-09-14T15:58:21.877Z,1.45
2023-09-14T16:00:58.754Z,2.00
2023-09-14T16:03:25.722Z,1.83
2023-09-14T16:05:53.889Z,1.48
2023-09-14T16:08:20.703Z,1.02
2023-09-14T16:10:56.297Z,1.27
2023-09-14T16:13:22.802Z,1.23
2023-09-14T16:15:53.402Z,1.80
2023-09-14T16:18:20.344Z,1.70
2023-09-14T16:23:14.480Z,1.65
2023-09-14T16:25:41.453Z,2.45
2023-09-14T16:28:09.234Z,1.92
2023-09-14T16:30:38.454Z,1.20
2023-09-14T16:33:05.594Z,1.40
2023-09-14T16:35:32.316Z,1.70
2023-09-14T16:40:51.503Z,1.80
2023-09-14T16:43:20.745Z,1.52
2023-09-14T16:45:48.957Z,1.27
2023-09-14T16:48:15.949Z,1.70
2023-09-14T16:51:42.593Z,1.40
2023-09-14T16:54:31.573Z,1.52
2023-09-14T17:00:13.205Z,1.80
2023-09-14T17:02:40.044Z,1.40
2023-09-14T17:08:22.778Z,1.77
2023-09-14T17:14:54.092Z,1.63
2023-09-14T17:18:03.933Z,1.58
2023-09-14T17:20:30.831Z,1.77
2023-09-14T17:22:59.035Z,1.92
2023-09-14T17:26:08.242Z,1.80
2023-09-14T17:28:34.796Z,1.48
2023-09-14T17:31:01.687Z,1.92
2023-09-14T17:33:28.489Z,1.42
2023-09-14T17:38:24.709Z,1.80
2023-09-14T17:40:52.042Z,2.15
2023-09-14T17:43:22.042Z,2.05
2023-09-14T17:45:51.460Z,2.00
2023-09-14T17:48:24.836Z,1.55
2023-09-14T17:50:56.186Z,1.90
2023-09-14T17:53:24.098Z,1.95
2023-09-14T17:55:51.112Z,2.38
2023-09-14T17:58:19.778Z,1.98
2023-09-14T18:01:09.260Z,1.88
2023-09-14T18:03:38.778Z,1.75
2023-09-14T18:06:05.607Z,2.40
2023-09-14T18:11:01.754Z,3.03
2023-09-14T18:13:30.116Z,1.88
2023-09-14T18:15:56.961Z,1.60
2023-09-14T18:18:26.297Z,1.83
2023-09-14T18:21:14.759Z,1.67
2023-09-14T18:23:43.080Z,2.38
2023-09-14T18:26:09.981Z,2.20
2023-09-14T18:29:08.328Z,2.20
2023-09-14T18:32:42.452Z,2.22
2023-09-14T18:43:02.326Z,1.75
2023-09-14T18:53:56.894Z,2.03
2023-09-14T19:02:00.644Z,2.22
2023-09-14T19:09:16.565Z,2.30
2023-09-14T19:16:17.643Z,2.45
2023-09-14T19:21:38.513Z,2.00
2023-09-14T19:37:34.387Z,2.30
2023-09-14T19:40:42.409Z,2.75
2023-09-14T19:47:28.020Z,2.45
2023-09-14T19:50:22.610Z,3.00
2023-09-14T20:03:45.622Z,2.90
2023-09-14T20:06:15.233Z,3.28
2023-09-14T20:08:57.533Z,3.25
2023-09-14T20:11:51.288Z,3.13
2023-09-14T20:14:23.985Z,3.80
2023-09-14T20:17:02.409Z,3.05
2023-09-14T20:30:54.262Z,3.00
2023-09-14T20:36:46.808Z,2.90
2023-09-14T20:39:56.449Z,3.20
2023-09-14T20:42:29.705Z,2.83
2023-09-14T20:45:25.879Z,3.47
2023-09-14T20:48:44.120Z,3.13
2023-09-14T20:51:37.352Z,3.10
2023-09-14T20:54:04.010Z,3.95
2023-09-14T20:59:14.701Z,3.03
2023-09-14T21:01:48.746Z,3.20
2023-09-14T21:04:18.349Z,2.97
2023-09-14T21:07:03.433Z,3.28
2023-09-14T21:09:30.160Z,2.75
2023-09-14T21:11:56.767Z,2.90
2023-09-14T21:14:27.990Z,3.10
2023-09-14T21:16:55.766Z,3.03
2023-09-14T21:19:26.975Z,3.22
2023-09-14T21:25:54.419Z,3.22
2023-09-14T21:28:21.666Z,3.00
2023-09-14T21:30:48.435Z,3.35
2023-09-14T21:35:41.735Z,2.70
2023-09-14T21:38:08.332Z,2.50
2023-09-14T21:40:36.594Z,3.28
2023-09-14T21:43:39.576Z,2.95
2023-09-14T21:46:07.654Z,3.00
2023-09-14T21:48:35.312Z,3.22
2023-09-14T21:51:02.610Z,3.28
2023-09-14T21:53:30.121Z,3.33
2023-09-14T21:55:56.982Z,3.00
2023-09-14T21:58:24.433Z,2.75
2023-09-14T22:00:51.313Z,2.88
2023-09-14T22:03:19.856Z,2.50
2023-09-14T22:05:51.510Z,2.78
2023-09-14T22:08:19.450Z,3.00
2023-09-14T22:10:47.332Z,3.28
2023-09-14T22:13:14.944Z,3.10
2023-09-14T22:15:44.132Z,2.80
2023-09-14T22:18:13.051Z,2.47
2023-09-14T22:20:39.821Z,3.55
2023-09-14T22:25:36.055Z,2.72
2023-09-14T22:28:03.868Z,2.40
2023-09-14T22:30:33.301Z,2.83
2023-09-14T22:33:03.227Z,3.17
2023-09-14T22:35:30.389Z,3.40
2023-09-14T22:37:57.073Z,3.08
2023-09-14T22:40:23.955Z,2.47
2023-09-14T22:42:50.608Z,2.47
2023-09-14T22:45:17.994Z,2.67
2023-09-14T22:47:44.760Z,2.80
2023-09-14T22:50:11.715Z,3.10
2023-09-14T22:55:12.360Z,2.42
2023-09-14T22:57:40.378Z,2.58
2023-09-14T23:00:10.390Z,2.75
2023-09-14T23:02:38.137Z,2.38
2023-09-14T23:05:06.580Z,2.40
2023-09-14T23:07:33.377Z,2.63
2023-09-14T23:10:02.248Z,2.50
2023-09-14T23:12:29.525Z,2.33
2023-09-14T23:14:56.370Z,2.30
2023-09-14T23:19:50.260Z,3.10
2023-09-14T23:24:43.572Z,2.22
2023-09-14T23:29:37.088Z,2.13
2023-09-14T23:32:03.726Z,3.55
2023-09-14T23:36:59.796Z,2.50
2023-09-14T23:39:26.508Z,2.90
2023-09-14T23:44:19.817Z,2.30
2023-09-14T23:46:47.510Z,2.70
2023-09-14T23:49:15.357Z,2.45
2023-09-14T23:51:43.637Z,2.80
2023-09-14T23:54:16.165Z,2.88
2023-09-14T23:56:42.913Z,2.67
